Time;durP1;ratioP1;P1;durP2;ratioP2;P2;SDS_P1;SDS_P2;PMS_P1;PMS_P2;Temp;Humidity;BMP_temperature;BMP_pressure;BME280_temperature;BME280_humidity;BME280_pressure;Samples;Min_cycle;Max_cycle;Signal;HPM_P1;HPM_P2
2023/03/06 00:01:38;;;;;;;55.58;23.38;;;;;;;2.00;100.00;96904.69;5102278;27;20033;-76
2023/03/06 00:04:03;;;;;;;52.90;22.05;;;;;;;2.06;100.00;96920.28;5124866;27;20099;-76
2023/03/06 00:06:29;;;;;;;47.67;20.45;;;;;;;2.01;100.00;96915.16;5123147;27;20019;-77
2023/03/06 00:08:55;;;;;;;56.05;21.92;;;;;;;2.07;100.00;96914.94;5121668;27;20094;-77
2023/03/06 00:11:20;;;;;;;48.50;21.23;;;;;;;2.08;100.00;96924.56;5107665;27;20027;-77
2023/03/06 00:13:46;;;;;;;47.40;22.05;;;;;;;1.85;100.00;96895.56;5127402;27;20079;-77
2023/03/06 00:16:12;;;;;;;49.42;21.73;;;;;;;1.81;100.00;96908.94;5127170;27;20023;-77
2023/03/06 00:18:37;;;;;;;51.75;23.80;;;;;;;1.79;100.00;96909.00;5101669;27;20502;-77
2023/03/06 00:21:06;;;;;;;51.13;22.77;;;;;;;1.69;100.00;96905.00;5160404;27;20022;-76
2023/03/06 00:23:32;;;;;;;59.67;24.63;;;;;;;1.66;100.00;96904.25;5122129;27;20040;-76
2023/03/06 00:25:57;;;;;;;50.47;22.27;;;;;;;1.66;100.00;96912.16;5129562;27;20057;-76
2023/03/06 00:28:23;;;;;;;49.53;22.23;;;;;;;1.62;100.00;96914.03;5106869;27;20027;-76
2023/03/06 00:30:48;;;;;;;53.78;22.83;;;;;;;1.63;100.00;96913.97;5106984;27;20026;-76
2023/03/06 00:33:14;;;;;;;50.40;23.05;;;;;;;1.72;100.00;96912.78;5120120;27;20023;-75
2023/03/06 00:35:40;;;;;;;53.60;22.08;;;;;;;1.77;100.00;96920.50;5101346;27;20521;-76
2023/03/06 00:38:05;;;;;;;48.95;21.52;;;;;;;1.69;100.00;96919.94;5112640;27;20054;-77
2023/03/06 00:40:31;;;;;;;41.20;21.70;;;;;;;1.60;100.00;96914.09;5109417;27;20486;-76
2023/03/06 00:42:56;;;;;;;40.20;19.80;;;;;;;1.47;100.00;96922.50;5103705;27;20140;-78
2023/03/06 00:45:22;;;;;;;43.58;20.08;;;;;;;1.40;100.00;96913.97;5106458;27;20027;-76
2023/03/06 00:47:47;;;;;;;46.00;20.58;;;;;;;1.30;100.00;96909.06;5112388;27;20102;-76
2023/03/06 00:50:13;;;;;;;44.88;19.88;;;;;;;1.32;100.00;96915.16;5109379;27;20027;-77
2023/03/06 00:52:40;;;;;;;39.33;16.75;;;;;;;1.32;100.00;96915.16;5132265;27;20027;-76
2023/03/06 00:55:07;;;;;;;36.97;16.02;;;;;;;1.30;100.00;96909.94;5109564;27;20043;-77
2023/03/06 00:57:32;;;;;;;41.85;17.80;;;;;;;1.31;100.00;96923.97;5108911;27;20022;-76
2023/03/06 00:59:58;;;;;;;37.45;17.27;;;;;;;1.18;100.00;96922.69;5103638;27;20475;-76
2023/03/06 01:02:23;;;;;;;36.90;17.50;;;;;;;1.11;100.00;96927.28;5108378;27;20082;-75
2023/03/06 01:04:49;;;;;;;42.42;16.92;;;;;;;1.02;100.00;96922.34;5112014;27;20543;-76
2023/03/06 01:07:14;;;;;;;39.08;18.33;;;;;;;0.99;100.00;96930.34;5123513;27;20019;-77
2023/03/06 01:09:40;;;;;;;34.80;17.90;;;;;;;1.03;100.00;96926.72;5119472;27;20030;-77
2023/03/06 01:12:06;;;;;;;40.83;18.38;;;;;;;0.97;100.00;96942.72;5107294;27;20083;-77
2023/03/06 01:14:31;;;;;;;40.55;18.83;;;;;;;0.93;100.00;96933.19;5109138;27;20479;-77
2023/03/06 01:16:57;;;;;;;45.20;18.92;;;;;;;0.93;100.00;96938.47;5108369;27;20019;-77
2023/03/06 01:19:23;;;;;;;42.30;18.08;;;;;;;0.95;100.00;96940.13;5108882;27;20023;-77
2023/03/06 01:21:48;;;;;;;44.47;19.25;;;;;;;0.97;100.00;96940.09;5128485;27;20509;-76
2023/03/06 01:24:14;;;;;;;45.65;21.38;;;;;;;0.99;100.00;96935.63;5105791;27;20035;-76
2023/03/06 01:26:39;;;;;;;53.30;20.85;;;;;;;0.92;100.00;96937.59;5131324;27;20027;-76
2023/03/06 01:29:05;;;;;;;53.28;20.48;;;;;;;0.92;100.00;96936.75;5132838;27;20035;-76
2023/03/06 01:31:31;;;;;;;48.60;21.67;;;;;;;0.87;100.00;96939.53;5120333;27;20106;-77
2023/03/06 01:33:56;;;;;;;48.25;21.25;;;;;;;0.90;100.00;96942.06;5107532;27;20398;-76
2023/03/06 01:36:22;;;;;;;44.97;21.45;;;;;;;0.95;100.00;96948.00;5125526;27;20490;-76
2023/03/06 01:38:47;;;;;;;55.33;21.50;;;;;;;0.96;100.00;96947.13;5104729;27;20080;-76
2023/03/06 01:41:16;;;;;;;45.72;19.85;;;;;;;0.90;100.00;96949.97;5118316;27;20023;-77
2023/03/06 01:43:43;;;;;;;46.45;20.40;;;;;;;0.90;100.00;96957.00;5122856;27;20072;-77
2023/03/06 01:46:15;;;;;;;41.83;18.67;;;;;;;0.89;100.00;96961.38;5117265;27;20030;-76
2023/03/06 01:48:41;;;;;;;32.17;14.03;;;;;;;0.81;100.00;96957.28;5121245;27;20044;-76
2023/03/06 01:51:07;;;;;;;41.05;16.48;;;;;;;0.75;100.00;96944.34;5102268;27;20702;-77
2023/03/06 01:53:32;;;;;;;40.78;19.35;;;;;;;0.84;100.00;96967.72;5144593;27;20027;-76
2023/03/06 01:55:58;;;;;;;45.08;18.75;;;;;;;0.78;100.00;96970.56;5103293;28;20049;-76
2023/03/06 01:58:23;;;;;;;44.20;20.05;;;;;;;0.76;100.00;96965.34;5107225;28;20030;-76
2023/03/06 02:00:49;;;;;;;44.78;18.95;;;;;;;0.71;100.00;96966.44;5120715;27;20015;-76
2023/03/06 02:03:22;;;;;;;39.60;18.27;;;;;;;0.72;100.00;96968.13;5104150;27;20027;-75
2023/03/06 02:05:47;;;;;;;40.47;18.08;;;;;;;0.61;100.00;96965.00;5124989;27;20494;-75
2023/03/06 02:08:16;;;;;;;47.03;18.63;;;;;;;0.54;100.00;96966.97;5104393;28;20034;-76
2023/03/06 02:11:05;;;;;;;41.33;18.55;;;;;;;0.45;100.00;96969.88;5122202;28;20022;-77
2023/03/06 02:13:31;;;;;;;42.35;18.15;;;;;;;0.45;100.00;96969.88;5100755;28;20023;-77
2023/03/06 02:15:57;;;;;;;42.80;17.13;;;;;;;0.36;100.00;96960.53;5101536;28;20471;-77
2023/03/06 02:18:22;;;;;;;37.28;16.33;;;;;;;0.39;100.00;96976.19;5107912;28;20030;-77
2023/03/06 02:20:52;;;;;;;42.45;18.10;;;;;;;0.44;100.00;96981.31;5119948;28;20031;-77
2023/03/06 02:23:51;;;;;;;50.92;17.42;;;;;;;0.43;100.00;96984.84;5130614;28;20039;-77
2023/03/06 02:26:17;;;;;;;42.90;17.20;;;;;;;0.37;100.00;96974.53;5116143;28;20051;-77
2023/03/06 02:28:42;;;;;;;37.83;16.05;;;;;;;0.29;100.00;96974.75;5106127;28;20046;-77
2023/03/06 02:31:19;;;;;;;43.58;16.90;;;;;;;0.24;100.00;96981.06;5131717;27;20398;-75
2023/03/06 02:33:45;;;;;;;34.65;16.95;;;;;;;0.14;100.00;96977.00;5112779;28;20030;-75
2023/03/06 02:36:12;;;;;;;39.80;16.98;;;;;;;0.12;100.00;96974.44;5105507;28;20053;-76
2023/03/06 02:38:49;;;;;;;33.47;16.13;;;;;;;0.07;100.00;96976.31;5106090;28;20031;-76
2023/03/06 02:41:15;;;;;;;38.33;17.05;;;;;;;0.12;100.00;96987.56;5106006;28;20027;-77
2023/03/06 02:43:42;;;;;;;41.63;18.58;;;;;;;0.02;100.00;96986.13;5102265;28;20015;-77
2023/03/06 02:46:08;;;;;;;38.45;17.73;;;;;;;0.08;100.00;96992.94;5126082;27;20015;-78
2023/03/06 02:48:33;;;;;;;36.03;16.88;;;;;;;0.09;100.00;96999.94;5135508;27;20018;-75
2023/03/06 02:50:59;;;;;;;40.22;17.60;;;;;;;-0.02;100.00;97001.09;5126716;27;20046;-76
2023/03/06 02:53:25;;;;;;;39.55;16.20;;;;;;;0.03;100.00;97005.38;5124140;27;20023;-76
2023/03/06 02:55:50;;;;;;;37.75;15.85;;;;;;;-0.03;100.00;97001.13;5119383;27;20058;-76
2023/03/06 02:58:18;;;;;;;38.05;17.10;;;;;;;-0.07;100.00;96996.91;5112446;27;20509;-77
2023/03/06 03:00:44;;;;;;;45.53;17.45;;;;;;;-0.07;100.00;97004.78;5111449;27;20451;-77
2023/03/06 03:03:10;;;;;;;32.55;16.30;;;;;;;0.02;100.00;97001.88;5111246;27;20019;-74
2023/03/06 03:05:35;;;;;;;34.72;17.40;;;;;;;0.04;100.00;97001.81;5106973;27;20026;-78
2023/03/06 03:08:01;;;;;;;37.53;17.15;;;;;;;0.08;100.00;97017.47;5111354;27;20021;-76
2023/03/06 03:10:26;;;;;;;39.80;17.88;;;;;;;0.06;100.00;97008.78;5121306;27;20494;-77
2023/03/06 03:12:52;;;;;;;40.05;16.90;;;;;;;0.04;100.00;97018.47;5108354;27;20046;-77
2023/03/06 03:15:17;;;;;;;41.15;17.17;;;;;;;0.05;100.00;97012.31;5108123;27;20030;-77
2023/03/06 03:17:43;;;;;;;31.98;14.85;;;;;;;-0.01;100.00;97013.34;5111435;27;20113;-77
2023/03/06 03:20:12;;;;;;;34.20;15.10;;;;;;;0.07;100.00;97012.25;5135080;27;20047;-77
2023/03/06 03:22:38;;;;;;;47.10;19.65;;;;;;;0.03;100.00;97010.63;5126216;27;20039;-77
2023/03/06 03:25:03;;;;;;;35.60;17.35;;;;;;;0.07;100.00;97015.75;5100891;27;20027;-77
2023/03/06 03:27:29;;;;;;;43.47;19.77;;;;;;;0.07;100.00;97020.13;5106019;27;20110;-77
2023/03/06 03:29:58;;;;;;;40.80;18.70;;;;;;;0.14;100.00;97016.44;5120870;27;20023;-76
2023/03/06 03:32:24;;;;;;;44.17;19.65;;;;;;;0.12;100.00;97019.13;5108720;27;20035;-77
2023/03/06 03:34:50;;;;;;;40.90;18.83;;;;;;;0.04;100.00;97005.31;5130189;27;20115;-77
2023/03/06 03:37:16;;;;;;;45.33;20.10;;;;;;;0.05;100.00;97020.19;5104727;27;20031;-76
2023/03/06 03:39:41;;;;;;;46.42;19.52;;;;;;;0.06;100.00;97023.69;5109449;27;20095;-77
2023/03/06 03:42:07;;;;;;;48.95;18.83;;;;;;;0.16;100.00;97035.63;5107669;27;20019;-77
2023/03/06 03:44:32;;;;;;;36.35;15.98;;;;;;;-0.06;100.00;97030.13;5108112;27;20054;-77
2023/03/06 03:46:58;;;;;;;38.13;16.58;;;;;;;0.00;100.00;97043.13;5123690;27;20076;-77
2023/03/06 03:49:23;;;;;;;35.53;16.60;;;;;;;-0.12;100.00;97033.81;5128491;27;20088;-75
2023/03/06 03:51:49;;;;;;;35.55;15.60;;;;;;;-0.13;100.00;97040.00;5117522;27;20031;-77
2023/03/06 03:54:15;;;;;;;39.30;16.17;;;;;;;-0.15;100.00;97035.66;5100610;27;20023;-76
2023/03/06 03:56:40;;;;;;;46.83;16.02;;;;;;;-0.17;100.00;97045.34;5100065;27;20034;-76
2023/03/06 03:59:07;;;;;;;37.20;15.90;;;;;;;-0.18;100.00;97048.88;5124392;27;20062;-77
2023/03/06 04:01:32;;;;;;;41.03;16.63;;;;;;;-0.20;100.00;97046.31;5109930;27;20407;-77
2023/03/06 04:03:58;;;;;;;36.60;16.10;;;;;;;-0.21;100.00;97041.09;5120720;27;20102;-77
2023/03/06 04:06:23;;;;;;;37.90;17.55;;;;;;;-0.14;100.00;97061.03;5119587;27;20027;-77
2023/03/06 04:08:49;;;;;;;37.00;16.92;;;;;;;-0.12;100.00;97051.34;5122694;27;20031;-77
2023/03/06 04:11:14;;;;;;;47.90;20.33;;;;;;;-0.20;100.00;97056.81;5108757;27;20023;-77
2023/03/06 04:13:40;;;;;;;47.47;20.35;;;;;;;-0.18;100.00;97051.50;5128062;27;20067;-77
2023/03/06 04:16:06;;;;;;;38.58;16.80;;;;;;;-0.07;100.00;97065.22;5125659;27;20486;-77
2023/03/06 04:18:31;;;;;;;37.95;17.25;;;;;;;-0.16;100.00;97061.09;5106753;27;20035;-75
2023/03/06 04:20:57;;;;;;;43.58;17.08;;;;;;;-0.20;100.00;97061.22;5102528;27;20035;-76
2023/03/06 04:23:23;;;;;;;48.35;20.40;;;;;;;-0.25;100.00;97063.97;5106316;27;20571;-76
2023/03/06 04:25:48;;;;;;;47.78;20.08;;;;;;;-0.27;100.00;97064.91;5119627;27;20031;-75
2023/03/06 04:28:14;;;;;;;41.10;19.58;;;;;;;-0.26;100.00;97059.63;5119051;27;20102;-75
2023/03/06 04:30:40;;;;;;;45.42;19.15;;;;;;;-0.33;100.00;97058.06;5107695;27;20035;-76
2023/03/06 04:33:05;;;;;;;45.03;18.50;;;;;;;-0.39;100.00;97062.59;5133493;27;20029;-75
2023/03/06 04:35:31;;;;;;;51.25;18.58;;;;;;;-0.50;100.00;97064.66;5102114;27;20032;-77
2023/03/06 04:37:56;;;;;;;39.00;16.60;;;;;;;-0.51;100.00;97063.81;5109676;27;20061;-76
2023/03/06 04:40:30;;;;;;;79.97;29.30;;;;;;;-0.56;100.00;97066.56;5106079;27;20406;-77
2023/03/06 04:42:56;;;;;;;139.60;46.97;;;;;;;-0.62;100.00;97076.34;5120908;27;20023;-74
2023/03/06 04:45:22;;;;;;;117.45;42.35;;;;;;;-0.59;100.00;97078.91;5099306;27;20481;-77
2023/03/06 04:47:48;;;;;;;108.63;37.17;;;;;;;-0.64;100.00;97068.50;5123322;27;20096;-76
2023/03/06 04:50:15;;;;;;;113.15;39.05;;;;;;;-0.62;100.00;97082.47;5122525;27;20475;-76
2023/03/06 04:52:41;;;;;;;94.55;34.63;;;;;;;-0.69;100.00;97080.91;5102725;27;20042;-76
2023/03/06 04:55:07;;;;;;;87.07;30.40;;;;;;;-0.66;100.00;97083.44;5121251;27;20067;-76
2023/03/06 04:57:37;;;;;;;90.82;33.85;;;;;;;-0.56;100.00;97087.56;5122138;27;20050;-76
2023/03/06 05:00:04;;;;;;;83.68;31.40;;;;;;;-0.52;100.00;97082.25;5105551;27;20031;-76
2023/03/06 05:02:30;;;;;;;90.85;33.47;;;;;;;-0.51;100.00;97084.81;5107289;27;20038;-76
2023/03/06 05:04:56;;;;;;;95.35;34.72;;;;;;;-0.43;100.00;97082.84;5126768;27;20031;-74
2023/03/06 05:07:21;;;;;;;88.65;35.45;;;;;;;-0.39;100.00;97079.22;5101736;27;20027;-76
2023/03/06 05:09:47;;;;;;;67.53;26.95;;;;;;;-0.31;100.00;97089.56;5156201;27;20030;-73
2023/03/06 05:12:12;;;;;;;75.13;27.35;;;;;;;-0.22;100.00;97089.31;5132898;27;20034;-81
2023/03/06 05:14:38;;;;;;;55.75;25.80;;;;;;;-0.18;100.00;97097.03;5098848;27;20508;-81
2023/03/06 05:17:04;;;;;;;68.03;30.80;;;;;;;-0.15;100.00;97094.34;5103154;27;20031;-82
2023/03/06 05:19:29;;;;;;;66.10;29.90;;;;;;;-0.07;100.00;97088.88;5099799;27;20038;-80
2023/03/06 05:21:55;;;;;;;78.25;32.70;;;;;;;0.01;100.00;97076.38;5114947;27;20023;-80
2023/03/06 05:24:20;;;;;;;75.32;29.48;;;;;;;0.10;100.00;97084.00;5133134;27;20088;-80
2023/03/06 05:26:46;;;;;;;72.65;31.20;;;;;;;0.25;100.00;97080.94;5097863;27;20023;-80
2023/03/06 05:32:33;;;;;;;79.20;32.03;;;;;;;0.51;100.00;97088.94;5133742;27;20041;-81
2023/03/06 05:34:58;;;;;;;78.88;31.33;;;;;;;0.59;100.00;97083.41;5097895;27;20027;-82
2023/03/06 05:37:24;;;;;;;74.22;27.00;;;;;;;0.67;100.00;97075.31;5097937;27;20054;-82
2023/03/06 05:39:50;;;;;;;64.70;26.98;;;;;;;0.71;100.00;97080.41;5098106;27;20475;-81
2023/03/06 05:42:17;;;;;;;72.57;27.10;;;;;;;0.87;100.00;97088.69;5098285;27;20118;-82
2023/03/06 05:44:43;;;;;;;59.25;24.85;;;;;;;0.84;100.00;97071.22;5097987;27;20038;-82
2023/03/06 05:47:10;;;;;;;60.55;27.35;;;;;;;0.98;100.00;97068.19;5097669;27;20079;-81
2023/03/06 05:49:36;;;;;;;65.80;24.40;;;;;;;1.05;100.00;97067.03;5098259;27;20418;-82
2023/03/06 05:52:03;;;;;;;67.97;25.50;;;;;;;1.06;100.00;97048.59;5114998;27;20037;-82
2023/03/06 05:54:33;;;;;;;51.67;21.67;;;;;;;1.21;100.00;97052.47;5098097;27;20024;-80
2023/03/06 05:56:58;;;;;;;48.58;20.63;;;;;;;1.26;100.00;97050.53;5114864;27;20114;-81
2023/03/06 05:59:27;;;;;;;52.78;23.83;;;;;;;1.32;100.00;97066.16;5097730;27;20050;-82
2023/03/06 06:01:56;;;;;;;55.72;24.90;;;;;;;1.30;100.00;97067.97;5098315;28;20433;-82
2023/03/06 06:04:23;;;;;;;63.95;24.83;;;;;;;1.43;100.00;97073.69;5097816;27;20027;-81
2023/03/06 06:06:56;;;;;;;46.33;20.60;;;;;;;1.58;100.00;97068.78;5098762;27;20452;-86
2023/03/06 06:09:22;;;;;;;47.97;21.17;;;;;;;1.55;100.00;97071.50;5104303;27;20027;-89
2023/03/06 06:11:52;;;;;;;43.33;17.42;;;;;;;1.78;100.00;97068.09;5108267;28;20402;-89
2023/03/06 06:14:18;;;;;;;52.35;21.08;;;;;;;1.75;100.00;97054.16;5103786;28;20022;-83
2023/03/06 06:16:44;;;;;;;56.92;24.15;;;;;;;2.05;100.00;97063.59;5096168;28;20037;-75
2023/03/06 06:19:14;;;;;;;57.17;23.60;;;;;;;2.34;100.00;97087.13;5116379;27;20019;-79
2023/03/06 06:21:39;;;;;;;60.15;25.60;;;;;;;2.55;100.00;97075.75;5113026;27;20110;-78
2023/03/06 06:24:05;;;;;;;72.65;29.30;;;;;;;2.80;100.00;97088.03;5103445;27;20030;-78
2023/03/06 06:26:31;;;;;;;68.03;29.52;;;;;;;3.04;100.00;97090.59;5107833;27;20019;-79
2023/03/06 06:28:56;;;;;;;69.97;28.02;;;;;;;3.20;100.00;97059.09;5111877;27;20035;-79
2023/03/06 06:31:22;;;;;;;55.35;25.13;;;;;;;3.23;100.00;97038.69;5103948;27;20107;-79
2023/03/06 06:33:47;;;;;;;70.43;28.38;;;;;;;3.33;100.00;97023.31;5126762;27;20025;-79
2023/03/06 06:36:20;;;;;;;64.38;28.67;;;;;;;3.63;100.00;97058.19;5111029;27;20058;-79
2023/03/06 06:38:46;;;;;;;65.70;29.10;;;;;;;3.84;100.00;97047.53;5111336;27;20027;-77
2023/03/06 06:41:11;;;;;;;79.03;33.60;;;;;;;4.12;100.00;97068.34;5105953;27;20033;-79
2023/03/06 06:43:37;;;;;;;69.50;31.67;;;;;;;4.18;100.00;97059.31;5135192;27;20023;-80
2023/03/06 06:46:03;;;;;;;96.30;37.42;;;;;;;3.98;100.00;97044.28;5117971;27;20042;-81
2023/03/06 06:48:29;;;;;;;75.18;34.72;;;;;;;3.64;100.00;97058.13;5143126;27;20046;-79
2023/03/06 06:50:58;;;;;;;78.85;32.50;;;;;;;3.70;100.00;97076.38;5109740;27;20027;-79
2023/03/06 06:53:24;;;;;;;66.88;29.45;;;;;;;3.77;100.00;97092.84;5115216;27;20114;-79
2023/03/06 06:55:49;;;;;;;61.60;25.83;;;;;;;3.44;100.00;97066.03;5120326;27;20050;-79
2023/03/06 06:58:15;;;;;;;66.82;29.02;;;;;;;3.82;100.00;97081.13;5148452;27;20391;-79
2023/03/06 07:00:40;;;;;;;76.13;30.90;;;;;;;4.33;100.00;97099.19;5105880;27;20023;-79
2023/03/06 07:03:07;;;;;;;71.70;30.48;;;;;;;4.80;100.00;97094.34;5106096;27;20046;-80
2023/03/06 07:05:33;;;;;;;70.35;29.88;;;;;;;4.97;100.00;97075.03;5123651;27;20027;-79
2023/03/06 07:07:58;;;;;;;70.40;29.63;;;;;;;4.99;100.00;97067.84;5101031;27;20410;-79
2023/03/06 07:10:24;;;;;;;51.92;24.50;;;;;;;5.52;100.00;97062.59;5101095;27;20031;-79
2023/03/06 07:12:50;;;;;;;56.38;25.17;;;;;;;5.68;100.00;97044.97;5108267;27;20098;-78
2023/03/06 07:15:16;;;;;;;51.30;23.48;;;;;;;5.99;100.00;97042.50;5102790;27;20031;-77
2023/03/06 07:17:42;;;;;;;48.05;23.08;;;;;;;6.32;100.00;97029.25;5118341;27;20470;-79
2023/03/06 07:20:09;;;;;;;50.85;22.98;;;;;;;6.75;100.00;97041.06;5116944;27;20103;-79
2023/03/06 07:22:35;;;;;;;48.85;24.02;;;;;;;7.07;100.00;97047.25;5110487;27;20048;-79
2023/03/06 07:25:01;;;;;;;42.63;21.58;;;;;;;7.76;100.00;97039.66;5075918;28;20027;-79
2023/03/06 07:27:27;;;;;;;53.17;23.42;;;;;;;8.12;100.00;97005.50;5076223;28;20464;-79
2023/03/06 07:29:53;;;;;;;44.20;19.15;;;;;;;8.02;93.97;96983.06;5078053;28;20047;-79
2023/03/06 07:32:19;;;;;;;43.40;19.10;;;;;;;9.19;100.00;97042.34;5075843;28;20035;-80
2023/03/06 07:34:45;;;;;;;32.97;16.80;;;;;;;9.72;100.00;97018.28;5076086;28;20114;-79
2023/03/06 07:37:10;;;;;;;46.42;17.25;;;;;;;10.58;85.67;96994.59;5075830;28;20558;-82
2023/03/06 07:39:36;;;;;;;29.00;14.55;;;;;;;9.97;79.66;96976.56;5075633;28;20036;-81
2023/03/06 07:42:02;;;;;;;31.60;16.58;;;;;;;10.84;70.49;96974.84;5075766;28;20411;-80
2023/03/06 07:44:27;;;;;;;35.78;17.85;;;;;;;11.17;71.47;96977.72;5075587;28;20544;-81
2023/03/06 07:46:53;;;;;;;35.72;17.08;;;;;;;11.61;70.63;96978.94;5075281;28;20475;-81
2023/03/06 07:49:18;;;;;;;37.17;18.92;;;;;;;10.54;88.10;97006.44;5075520;28;20488;-81
2023/03/06 07:51:45;;;;;;;43.33;20.75;;;;;;;10.52;86.95;96997.69;5092634;28;20020;-82
2023/03/06 07:54:11;;;;;;;43.67;19.83;;;;;;;11.79;65.84;96954.31;5091591;28;20038;-81
2023/03/06 07:56:37;;;;;;;37.30;20.27;;;;;;;12.52;71.41;96982.63;5091676;28;20032;-80
2023/03/06 07:59:03;;;;;;;34.65;17.80;;;;;;;12.74;71.13;96985.28;5074891;28;20030;-80
2023/03/06 08:01:28;;;;;;;38.20;19.20;;;;;;;12.06;61.13;96937.94;5074310;28;20092;-80
2023/03/06 08:03:54;;;;;;;45.38;19.63;;;;;;;11.58;74.95;96976.47;5073616;28;20028;-80
2023/03/06 08:06:22;;;;;;;29.27;16.13;;;;;;;10.85;67.54;96942.63;5073719;28;20472;-79
2023/03/06 08:08:49;;;;;;;33.15;16.35;;;;;;;10.22;74.93;96956.09;5070497;28;20051;-80
2023/03/06 08:11:16;;;;;;;44.22;17.65;;;;;;;10.15;69.73;96949.47;5074808;28;20032;-76
2023/03/06 08:13:42;;;;;;;29.77;15.85;;;;;;;10.16;77.38;96958.34;5089984;28;20077;-78
2023/03/06 08:16:09;;;;;;;32.33;16.70;;;;;;;10.78;76.14;96968.09;5072204;28;20033;-77
2023/03/06 08:18:36;;;;;;;28.80;14.68;;;;;;;11.38;73.88;96969.94;5090331;28;20040;-78
2023/03/06 08:21:10;;;;;;;42.88;17.48;;;;;;;11.80;65.46;96953.34;5074299;28;20542;-77
2023/03/06 08:23:36;;;;;;;27.70;16.55;;;;;;;11.88;63.16;96936.66;5087167;28;20047;-76
2023/03/06 08:26:07;;;;;;;36.33;17.20;;;;;;;11.11;61.00;96913.94;5091060;28;20085;-78
2023/03/06 08:28:34;;;;;;;35.47;16.50;;;;;;;12.98;57.17;96940.41;5088278;28;20036;-78
2023/03/06 08:31:07;;;;;;;32.25;17.55;;;;;;;14.31;52.99;96917.47;5100657;28;20080;-77
2023/03/06 08:33:33;;;;;;;34.58;17.88;;;;;;;14.73;49.33;96896.75;5090274;28;20027;-78
2023/03/06 08:35:58;;;;;;;40.65;16.48;;;;;;;16.10;46.90;96910.06;5073588;28;20028;-78
2023/03/06 08:38:24;;;;;;;35.45;15.43;;;;;;;16.68;46.75;96898.16;5108174;28;20085;-79
2023/03/06 08:40:49;;;;;;;38.97;16.17;;;;;;;17.46;48.17;96912.09;5108239;28;20040;-81
2023/03/06 08:43:15;;;;;;;28.67;16.48;;;;;;;18.83;44.93;96900.53;5073357;28;20043;-81
2023/03/06 08:45:40;;;;;;;31.35;16.98;;;;;;;19.34;40.18;96860.75;5074215;28;20024;-81
2023/03/06 08:48:06;;;;;;;29.60;15.80;;;;;;;18.81;41.85;96845.66;5074119;28;20067;-80
2023/03/06 08:50:31;;;;;;;34.13;16.33;;;;;;;17.47;39.41;96786.72;5074241;28;20024;-80
2023/03/06 08:52:57;;;;;;;32.15;12.80;;;;;;;16.75;39.51;96776.88;5074232;28;20080;-79
2023/03/06 08:55:23;;;;;;;29.30;14.13;;;;;;;17.26;38.74;96779.75;5108096;28;20032;-79
2023/03/06 08:57:48;;;;;;;24.17;12.75;;;;;;;16.04;39.30;96735.28;5073853;28;20028;-79
2023/03/06 09:00:15;;;;;;;23.30;12.40;;;;;;;15.77;41.69;96781.97;5090926;28;20028;-78
2023/03/06 09:02:40;;;;;;;20.52;10.57;;;;;;;16.33;41.25;96786.44;5073844;28;20024;-78
2023/03/06 09:05:07;;;;;;;24.75;11.20;;;;;;;17.38;39.17;96787.63;5073906;28;20416;-78
2023/03/06 09:07:34;;;;;;;21.88;10.75;;;;;;;18.66;37.02;96789.53;5073938;28;20048;-79
2023/03/06 09:09:59;;;;;;;18.27;10.48;;;;;;;19.44;35.66;96782.81;5073829;28;20020;-79
2023/03/06 09:12:25;;;;;;;16.10;9.50;;;;;;;19.34;35.39;96766.66;5089998;28;20032;-79
2023/03/06 09:14:51;;;;;;;21.92;10.27;;;;;;;19.94;34.19;96761.75;5107418;28;20498;-78
2023/03/06 09:17:16;;;;;;;19.25;9.95;;;;;;;16.70;37.44;96707.09;5107814;28;20528;-84
2023/03/06 09:19:42;;;;;;;16.67;8.82;;;;;;;16.25;38.40;96706.22;5107706;28;20024;-84
2023/03/06 09:22:07;;;;;;;22.50;9.00;;;;;;;18.56;35.06;96754.44;5096022;28;20036;-86
2023/03/06 09:24:33;;;;;;;23.20;8.98;;;;;;;19.80;33.92;96757.03;5116176;27;20111;-85
2023/03/06 09:26:58;;;;;;;18.42;9.15;;;;;;;19.15;34.25;96725.44;5111381;28;20080;-86
2023/03/06 09:29:24;;;;;;;18.60;9.25;;;;;;;18.26;35.87;96727.88;5096110;27;20154;-85
2023/03/06 09:31:49;;;;;;;23.27;9.75;;;;;;;17.87;35.33;96687.75;5131854;27;20104;-87
2023/03/06 09:34:15;;;;;;;17.20;9.55;;;;;;;15.37;39.17;96682.44;5156852;27;20510;-86
2023/03/06 09:36:41;;;;;;;18.10;8.52;;;;;;;17.85;37.22;96745.75;5102299;28;20023;-87
2023/03/06 09:39:08;;;;;;;20.13;9.40;;;;;;;18.74;35.48;96738.06;5094470;28;20037;-85
2023/03/06 09:41:36;;;;;;;20.95;9.45;;;;;;;19.51;35.24;96758.53;5123969;27;20035;-84
2023/03/06 09:44:07;;;;;;;20.70;9.82;;;;;;;19.55;33.84;96741.78;5102379;28;20058;-83
2023/03/06 09:47:14;;;;;;;18.95;8.77;;;;;;;18.10;35.54;96693.47;5107460;28;20038;-86
2023/03/06 09:49:45;;;;;;;17.98;10.73;;;;;;;17.81;36.37;96704.63;5098352;27;20118;-85
2023/03/06 09:52:23;;;;;;;20.27;11.70;;;;;;;16.45;38.99;96686.22;5125092;27;20034;-86
2023/03/06 09:55:06;;;;;;;19.23;9.85;;;;;;;17.97;38.11;96743.63;5116033;27;20034;-85
2023/03/06 09:57:36;;;;;;;21.52;11.15;;;;;;;20.21;35.10;96770.53;5093895;28;20022;-87
2023/03/06 10:00:11;;;;;;;18.73;9.25;;;;;;;20.56;33.64;96732.03;5134355;27;20490;-85
2023/03/06 10:02:50;;;;;;;21.73;9.50;;;;;;;18.73;35.60;96691.19;5140042;27;20027;-87
2023/03/06 10:05:23;;;;;;;25.23;10.73;;;;;;;17.34;38.41;96689.78;5118638;27;20023;-86
2023/03/06 10:07:59;;;;;;;14.95;8.50;;;;;;;17.65;39.28;96715.38;5143888;27;20027;-86
2023/03/06 10:10:39;;;;;;;20.77;9.25;;;;;;;19.55;36.71;96738.22;5105063;28;20042;-85
2023/03/06 10:13:12;;;;;;;18.52;8.23;;;;;;;20.24;34.14;96716.69;5110201;28;20039;-86
2023/03/06 10:15:40;;;;;;;17.40;9.07;;;;;;;19.35;35.97;96686.97;5114621;28;20406;-86
2023/03/06 10:18:06;;;;;;;19.20;8.35;;;;;;;17.78;38.25;96683.31;5110493;28;20067;-85
2023/03/06 10:20:54;;;;;;;15.00;6.60;;;;;;;19.52;35.02;96709.56;5111712;28;20104;-88
2023/03/06 10:23:37;;;;;;;19.92;7.25;;;;;;;20.74;33.07;96702.72;5102226;28;20035;-85
2023/03/06 10:26:12;;;;;;;14.55;7.45;;;;;;;18.80;35.78;96654.25;5130788;27;20015;-85
2023/03/06 10:28:55;;;;;;;12.63;7.57;;;;;;;18.85;35.94;96654.63;5130707;28;20026;-86
2023/03/06 10:31:25;;;;;;;14.35;7.50;;;;;;;20.78;34.67;96709.50;5118072;27;20028;-86
2023/03/06 10:33:55;;;;;;;17.55;8.52;;;;;;;19.66;35.10;96678.16;5122511;27;20023;-85
2023/03/06 10:36:27;;;;;;;12.18;6.40;;;;;;;21.94;32.51;96718.34;5147673;27;20084;-84
2023/03/06 10:38:54;;;;;;;12.90;7.55;;;;;;;21.26;32.75;96666.69;5110079;28;20509;-85
2023/03/06 10:41:31;;;;;;;12.00;6.95;;;;;;;20.99;32.76;96651.75;5108841;28;20095;-86
2023/03/06 10:43:59;;;;;;;13.80;7.15;;;;;;;19.79;34.13;96627.75;5126603;27;20479;-84
2023/03/06 10:46:27;;;;;;;18.08;7.40;;;;;;;22.01;33.51;96695.63;5130828;27;20046;-84
2023/03/06 10:48:58;;;;;;;13.43;8.27;;;;;;;21.73;31.70;96653.69;5123271;27;20452;-87
2023/03/06 10:51:25;;;;;;;14.93;8.07;;;;;;;20.97;32.72;96632.06;5110348;28;20102;-85
2023/03/06 10:53:55;;;;;;;12.85;7.03;;;;;;;22.80;31.29;96688.53;5117433;28;20527;-84
2023/03/06 10:56:38;;;;;;;11.88;6.80;;;;;;;20.92;32.67;96610.00;5142961;27;20027;-85
2023/03/06 10:59:23;;;;;;;12.82;7.07;;;;;;;22.51;30.73;96653.97;5093173;28;20402;-85
2023/03/06 11:01:52;;;;;;;11.60;6.72;;;;;;;22.75;30.49;96633.72;5123540;27;20038;-85
2023/03/06 11:04:30;;;;;;;13.25;6.78;;;;;;;20.90;33.78;96609.34;5110050;28;20032;-85
2023/03/06 11:07:25;;;;;;;14.15;6.70;;;;;;;18.76;35.64;96555.38;5121236;27;20019;-85
2023/03/06 11:09:56;;;;;;;15.60;6.07;;;;;;;19.72;33.36;96585.22;5127036;27;20111;-84
2023/03/06 11:12:38;;;;;;;14.68;7.03;;;;;;;18.69;35.05;96570.59;5127509;27;20031;-86
2023/03/06 11:15:13;;;;;;;10.40;6.43;;;;;;;19.50;33.56;96575.13;5109686;28;20444;-85
2023/03/06 11:18:06;;;;;;;18.38;10.13;;;;;;;19.03;35.20;96578.56;5113395;28;20111;-86
2023/03/06 11:20:44;;;;;;;14.52;7.20;;;;;;;18.62;35.58;96555.19;5127024;27;20073;-86
2023/03/06 11:23:34;;;;;;;13.02;6.97;;;;;;;16.57;37.67;96509.53;5125922;27;20051;-85